sensor_id;sensor_type;location;lat;lon;timestamp;temperature;humidity
31769;DHT22;18342;52.132;21.048;2022-08-25T00:01:20;23.20;99.90
31769;DHT22;18342;52.132;21.048;2022-08-25T00:03:47;23.20;99.90
31769;DHT22;18342;52.132;21.048;2022-08-25T00:06:14;23.20;99.90
31769;DHT22;18342;52.132;21.048;2022-08-25T00:08:40;23.20;99.90
31769;DHT22;18342;52.132;21.048;2022-08-25T00:11:22;23.20;99.90
31769;DHT22;18342;52.132;21.048;2022-08-25T00:13:52;23.20;99.90
31769;DHT22;18342;52.132;21.048;2022-08-25T00:16:20;23.10;99.90
31769;DHT22;18342;52.132;21.048;2022-08-25T00:18:50;23.10;99.90
31769;DHT22;18342;52.132;21.048;2022-08-25T00:21:17;23.20;99.90
31769;DHT22;18342;52.132;21.048;2022-08-25T00:23:43;23.10;99.90
31769;DHT22;18342;52.132;21.048;2022-08-25T00:26:10;23.10;99.90
31769;DHT22;18342;52.132;21.048;2022-08-25T00:28:36;23.10;99.90
31769;DHT22;18342;52.132;21.048;2022-08-25T00:31:02;23.10;99.90
31769;DHT22;18342;52.132;21.048;2022-08-25T00:33:29;23.10;99.90
31769;DHT22;18342;52.132;21.048;2022-08-25T00:35:58;23.20;99.90
31769;DHT22;18342;52.132;21.048;2022-08-25T00:38:25;23.10;99.90
31769;DHT22;18342;52.132;21.048;2022-08-25T00:40:51;23.10;99.90
31769;DHT22;18342;52.132;21.048;2022-08-25T00:43:55;23.10;99.90
31769;DHT22;18342;52.132;21.048;2022-08-25T00:46:24;23.10;99.90
31769;DHT22;18342;52.132;21.048;2022-08-25T00:48:55;23.10;99.90
31769;DHT22;18342;52.132;21.048;2022-08-25T00:51:37;23.10;99.90
31769;DHT22;18342;52.132;21.048;2022-08-25T00:54:04;23.10;99.90
31769;DHT22;18342;52.132;21.048;2022-08-25T00:56:31;23.20;99.90
31769;DHT22;18342;52.132;21.048;2022-08-25T00:58:59;23.20;99.90
31769;DHT22;18342;52.132;21.048;2022-08-25T01:01:25;23.20;99.90
31769;DHT22;18342;52.132;21.048;2022-08-25T01:03:51;23.20;99.90
31769;DHT22;18342;52.132;21.048;2022-08-25T01:06:17;23.20;99.90
31769;DHT22;18342;52.132;21.048;2022-08-25T01:08:43;23.20;99.90
31769;DHT22;18342;52.132;21.048;2022-08-25T01:11:10;23.20;99.90
31769;DHT22;18342;52.132;21.048;2022-08-25T01:13:40;23.30;99.90
31769;DHT22;18342;52.132;21.048;2022-08-25T01:16:07;23.20;99.90
31769;DHT22;18342;52.132;21.048;2022-08-25T01:18:48;23.20;99.90
31769;DHT22;18342;52.132;21.048;2022-08-25T01:21:16;23.20;99.90
31769;DHT22;18342;52.132;21.048;2022-08-25T01:23:42;23.20;99.90
31769;DHT22;18342;52.132;21.048;2022-08-25T01:26:15;23.20;99.90
31769;DHT22;18342;52.132;21.048;2022-08-25T01:28:44;23.20;99.90
31769;DHT22;18342;52.132;21.048;2022-08-25T01:31:30;23.20;99.90
31769;DHT22;18342;52.132;21.048;2022-08-25T01:33:57;23.20;99.90
31769;DHT22;18342;52.132;21.048;2022-08-25T01:36:24;23.20;99.90
31769;DHT22;18342;52.132;21.048;2022-08-25T01:38:50;23.20;99.90
31769;DHT22;18342;52.132;21.048;2022-08-25T01:44:00;23.20;99.90
31769;DHT22;18342;52.132;21.048;2022-08-25T01:46:26;23.20;99.90
31769;DHT22;18342;52.132;21.048;2022-08-25T01:48:52;23.20;99.90
31769;DHT22;18342;52.132;21.048;2022-08-25T01:51:24;23.20;99.90
31769;DHT22;18342;52.132;21.048;2022-08-25T01:53:50;23.20;99.90
31769;DHT22;18342;52.132;21.048;2022-08-25T01:56:16;23.20;99.90
31769;DHT22;18342;52.132;21.048;2022-08-25T01:58:45;23.20;99.90
31769;DHT22;18342;52.132;21.048;2022-08-25T02:01:16;23.10;99.90
31769;DHT22;18342;52.132;21.048;2022-08-25T02:03:45;23.10;99.90
31769;DHT22;18342;52.132;21.048;2022-08-25T02:06:17;23.10;99.90
31769;DHT22;18342;52.132;21.048;2022-08-25T02:08:44;23.10;99.90
31769;DHT22;18342;52.132;21.048;2022-08-25T02:11:12;23.10;99.90
31769;DHT22;18342;52.132;21.048;2022-08-25T02:13:38;23.10;99.90
31769;DHT22;18342;52.132;21.048;2022-08-25T02:16:05;23.10;99.90
31769;DHT22;18342;52.132;21.048;2022-08-25T02:18:31;23.10;99.90
31769;DHT22;18342;52.132;21.048;2022-08-25T02:20:57;23.00;99.90
31769;DHT22;18342;52.132;21.048;2022-08-25T02:23:22;23.00;99.90
31769;DHT22;18342;52.132;21.048;2022-08-25T02:25:48;23.00;99.90
31769;DHT22;18342;52.132;21.048;2022-08-25T02:28:14;23.00;99.90
31769;DHT22;18342;52.132;21.048;2022-08-25T02:30:41;23.00;99.90
31769;DHT22;18342;52.132;21.048;2022-08-25T02:33:07;23.00;99.90
31769;DHT22;18342;52.132;21.048;2022-08-25T02:35:33;23.00;99.90
31769;DHT22;18342;52.132;21.048;2022-08-25T02:37:59;23.00;99.90
31769;DHT22;18342;52.132;21.048;2022-08-25T02:40:25;23.00;99.90
31769;DHT22;18342;52.132;21.048;2022-08-25T02:42:51;23.00;99.90
31769;DHT22;18342;52.132;21.048;2022-08-25T02:45:17;23.00;99.90
31769;DHT22;18342;52.132;21.048;2022-08-25T02:47:43;23.00;99.90
31769;DHT22;18342;52.132;21.048;2022-08-25T02:50:10;23.00;99.90
31769;DHT22;18342;52.132;21.048;2022-08-25T02:52:36;23.00;99.90
31769;DHT22;18342;52.132;21.048;2022-08-25T02:55:05;23.00;99.90
31769;DHT22;18342;52.132;21.048;2022-08-25T02:57:31;23.00;99.90
31769;DHT22;18342;52.132;21.048;2022-08-25T02:59:57;22.90;99.90
31769;DHT22;18342;52.132;21.048;2022-08-25T03:02:24;22.90;99.90
31769;DHT22;18342;52.132;21.048;2022-08-25T03:04:51;23.00;99.90
31769;DHT22;18342;52.132;21.048;2022-08-25T03:07:18;22.90;99.90
31769;DHT22;18342;52.132;21.048;2022-08-25T03:09:44;22.90;99.90
31769;DHT22;18342;52.132;21.048;2022-08-25T03:12:10;22.90;99.90
31769;DHT22;18342;52.132;21.048;2022-08-25T03:14:40;22.90;99.90
31769;DHT22;18342;52.132;21.048;2022-08-25T03:17:06;22.90;99.90
31769;DHT22;18342;52.132;21.048;2022-08-25T03:19:32;22.90;99.90
31769;DHT22;18342;52.132;21.048;2022-08-25T03:21:58;22.90;99.90
31769;DHT22;18342;52.132;21.048;2022-08-25T03:24:24;22.90;99.90
31769;DHT22;18342;52.132;21.048;2022-08-25T03:26:50;22.90;99.90
31769;DHT22;18342;52.132;21.048;2022-08-25T03:29:29;22.90;99.90
31769;DHT22;18342;52.132;21.048;2022-08-25T03:31:55;22.80;99.90
31769;DHT22;18342;52.132;21.048;2022-08-25T03:34:23;22.80;99.90
31769;DHT22;18342;52.132;21.048;2022-08-25T03:36:51;22.80;99.90
31769;DHT22;18342;52.132;21.048;2022-08-25T03:39:18;22.80;99.90
31769;DHT22;18342;52.132;21.048;2022-08-25T03:41:45;22.80;99.90
31769;DHT22;18342;52.132;21.048;2022-08-25T03:44:11;22.80;99.90
31769;DHT22;18342;52.132;21.048;2022-08-25T03:46:44;22.80;99.90
31769;DHT22;18342;52.132;21.048;2022-08-25T03:49:16;22.80;99.90
31769;DHT22;18342;52.132;21.048;2022-08-25T03:51:47;22.80;99.90
31769;DHT22;18342;52.132;21.048;2022-08-25T03:54:19;22.80;99.90
31769;DHT22;18342;52.132;21.048;2022-08-25T03:56:45;22.80;99.90
31769;DHT22;18342;52.132;21.048;2022-08-25T03:59:11;22.70;99.90
31769;DHT22;18342;52.132;21.048;2022-08-25T04:01:39;22.70;99.90
31769;DHT22;18342;52.132;21.048;2022-08-25T04:04:06;22.70;99.90
31769;DHT22;18342;52.132;21.048;2022-08-25T04:06:32;22.70;99.90
31769;DHT22;18342;52.132;21.048;2022-08-25T04:08:58;22.70;99.90
31769;DHT22;18342;52.132;21.048;2022-08-25T04:11:25;22.70;99.90
31769;DHT22;18342;52.132;21.048;2022-08-25T04:13:52;22.70;99.90
31769;DHT22;18342;52.132;21.048;2022-08-25T04:16:23;22.70;99.90
31769;DHT22;18342;52.132;21.048;2022-08-25T04:18:50;22.70;99.90
31769;DHT22;18342;52.132;21.048;2022-08-25T04:21:17;22.70;99.90
31769;DHT22;18342;52.132;21.048;2022-08-25T04:23:45;22.70;99.90
31769;DHT22;18342;52.132;21.048;2022-08-25T04:26:15;22.70;99.90
31769;DHT22;18342;52.132;21.048;2022-08-25T04:28:41;22.70;99.90
31769;DHT22;18342;52.132;21.048;2022-08-25T04:31:09;22.70;99.90
31769;DHT22;18342;52.132;21.048;2022-08-25T04:33:36;22.70;99.90
31769;DHT22;18342;52.132;21.048;2022-08-25T04:36:03;22.70;99.90
31769;DHT22;18342;52.132;21.048;2022-08-25T04:38:29;22.70;99.90
31769;DHT22;18342;52.132;21.048;2022-08-25T04:41:02;22.70;99.90
31769;DHT22;18342;52.132;21.048;2022-08-25T04:43:29;22.70;99.90
31769;DHT22;18342;52.132;21.048;2022-08-25T04:45:54;22.70;99.90
31769;DHT22;18342;52.132;21.048;2022-08-25T04:48:20;22.80;99.90
31769;DHT22;18342;52.132;21.048;2022-08-25T04:50:46;22.80;99.90
31769;DHT22;18342;52.132;21.048;2022-08-25T04:53:13;22.80;99.90
31769;DHT22;18342;52.132;21.048;2022-08-25T04:55:43;22.80;99.90
31769;DHT22;18342;52.132;21.048;2022-08-25T04:58:10;22.80;99.90
31769;DHT22;18342;52.132;21.048;2022-08-25T05:00:36;22.80;99.90
31769;DHT22;18342;52.132;21.048;2022-08-25T05:03:03;22.90;99.90
31769;DHT22;18342;52.132;21.048;2022-08-25T05:05:29;22.90;99.90
31769;DHT22;18342;52.132;21.048;2022-08-25T05:07:55;22.90;99.90
31769;DHT22;18342;52.132;21.048;2022-08-25T05:10:21;22.90;99.90
31769;DHT22;18342;52.132;21.048;2022-08-25T05:12:47;23.00;99.90
31769;DHT22;18342;52.132;21.048;2022-08-25T05:15:12;23.00;99.90
31769;DHT22;18342;52.132;21.048;2022-08-25T05:17:57;23.00;99.90
31769;DHT22;18342;52.132;21.048;2022-08-25T05:20:23;23.00;99.90
31769;DHT22;18342;52.132;21.048;2022-08-25T05:22:49;23.00;99.90
31769;DHT22;18342;52.132;21.048;2022-08-25T05:25:14;23.10;99.90
31769;DHT22;18342;52.132;21.048;2022-08-25T05:27:41;23.10;99.90
31769;DHT22;18342;52.132;21.048;2022-08-25T05:30:09;23.20;99.90
31769;DHT22;18342;52.132;21.048;2022-08-25T05:32:36;23.20;99.90
31769;DHT22;18342;52.132;21.048;2022-08-25T05:35:03;23.30;99.90
31769;DHT22;18342;52.132;21.048;2022-08-25T05:37:29;23.30;99.90
31769;DHT22;18342;52.132;21.048;2022-08-25T05:39:54;23.40;99.90
31769;DHT22;18342;52.132;21.048;2022-08-25T05:42:20;23.40;99.90
31769;DHT22;18342;52.132;21.048;2022-08-25T05:44:47;23.50;99.90
31769;DHT22;18342;52.132;21.048;2022-08-25T05:47:12;23.60;99.90
31769;DHT22;18342;52.132;21.048;2022-08-25T05:49:38;23.60;99.90
31769;DHT22;18342;52.132;21.048;2022-08-25T05:52:04;23.70;99.90
31769;DHT22;18342;52.132;21.048;2022-08-25T05:54:29;23.80;99.90
31769;DHT22;18342;52.132;21.048;2022-08-25T05:56:56;23.80;99.90
31769;DHT22;18342;52.132;21.048;2022-08-25T05:59:22;23.90;99.90
31769;DHT22;18342;52.132;21.048;2022-08-25T06:01:48;24.00;99.90
31769;DHT22;18342;52.132;21.048;2022-08-25T06:04:32;24.00;99.90
31769;DHT22;18342;52.132;21.048;2022-08-25T06:06:58;24.20;99.90
31769;DHT22;18342;52.132;21.048;2022-08-25T06:09:23;24.20;99.90
31769;DHT22;18342;52.132;21.048;2022-08-25T06:11:49;24.30;99.90
31769;DHT22;18342;52.132;21.048;2022-08-25T06:14:15;24.40;99.90
31769;DHT22;18342;52.132;21.048;2022-08-25T06:16:41;24.40;99.90
31769;DHT22;18342;52.132;21.048;2022-08-25T06:19:08;24.60;99.90
31769;DHT22;18342;52.132;21.048;2022-08-25T06:21:34;24.60;99.90
31769;DHT22;18342;52.132;21.048;2022-08-25T06:24:01;24.70;99.90
31769;DHT22;18342;52.132;21.048;2022-08-25T06:26:27;24.80;99.90
31769;DHT22;18342;52.132;21.048;2022-08-25T06:28:53;24.90;99.90
31769;DHT22;18342;52.132;21.048;2022-08-25T06:31:19;24.90;99.90
31769;DHT22;18342;52.132;21.048;2022-08-25T06:33:46;25.00;99.90
31769;DHT22;18342;52.132;21.048;2022-08-25T06:36:13;25.00;99.90
31769;DHT22;18342;52.132;21.048;2022-08-25T06:38:39;25.00;99.90
31769;DHT22;18342;52.132;21.048;2022-08-25T06:41:07;25.00;99.90
31769;DHT22;18342;52.132;21.048;2022-08-25T06:43:35;25.00;99.90
31769;DHT22;18342;52.132;21.048;2022-08-25T06:46:13;25.00;99.90
31769;DHT22;18342;52.132;21.048;2022-08-25T06:48:39;25.00;99.90
31769;DHT22;18342;52.132;21.048;2022-08-25T06:51:07;25.10;99.90
31769;DHT22;18342;52.132;21.048;2022-08-25T06:53:34;25.10;99.90
31769;DHT22;18342;52.132;21.048;2022-08-25T06:56:00;25.10;99.90
31769;DHT22;18342;52.132;21.048;2022-08-25T06:58:26;25.20;99.90
31769;DHT22;18342;52.132;21.048;2022-08-25T07:00:52;25.30;99.90
31769;DHT22;18342;52.132;21.048;2022-08-25T07:03:17;25.40;99.90
31769;DHT22;18342;52.132;21.048;2022-08-25T07:05:51;25.50;99.90
31769;DHT22;18342;52.132;21.048;2022-08-25T07:08:17;25.50;99.90
31769;DHT22;18342;52.132;21.048;2022-08-25T07:13:09;25.70;99.90
31769;DHT22;18342;52.132;21.048;2022-08-25T07:15:39;25.70;99.90
31769;DHT22;18342;52.132;21.048;2022-08-25T07:18:05;25.80;99.90
31769;DHT22;18342;52.132;21.048;2022-08-25T07:20:36;25.90;99.90
31769;DHT22;18342;52.132;21.048;2022-08-25T07:23:02;26.00;99.90
31769;DHT22;18342;52.132;21.048;2022-08-25T07:25:27;26.00;99.90
31769;DHT22;18342;52.132;21.048;2022-08-25T07:27:53;26.10;99.90
31769;DHT22;18342;52.132;21.048;2022-08-25T07:30:19;26.20;99.90
31769;DHT22;18342;52.132;21.048;2022-08-25T07:32:45;26.20;99.90
31769;DHT22;18342;52.132;21.048;2022-08-25T07:35:11;26.30;99.90
31769;DHT22;18342;52.132;21.048;2022-08-25T07:37:41;26.30;99.90
31769;DHT22;18342;52.132;21.048;2022-08-25T07:40:09;26.40;99.90
31769;DHT22;18342;52.132;21.048;2022-08-25T07:42:36;26.50;99.90
31769;DHT22;18342;52.132;21.048;2022-08-25T07:45:02;26.60;99.90
31769;DHT22;18342;52.132;21.048;2022-08-25T07:47:29;26.60;99.90
31769;DHT22;18342;52.132;21.048;2022-08-25T07:49:56;26.60;99.90
31769;DHT22;18342;52.132;21.048;2022-08-25T07:52:22;26.70;99.90
31769;DHT22;18342;52.132;21.048;2022-08-25T07:54:47;26.80;99.90
31769;DHT22;18342;52.132;21.048;2022-08-25T07:57:13;26.90;99.90
31769;DHT22;18342;52.132;21.048;2022-08-25T07:59:40;26.90;99.90
31769;DHT22;18342;52.132;21.048;2022-08-25T08:02:08;26.90;99.90
31769;DHT22;18342;52.132;21.048;2022-08-25T08:04:35;27.00;99.90
31769;DHT22;18342;52.132;21.048;2022-08-25T08:07:01;27.00;99.90
31769;DHT22;18342;52.132;21.048;2022-08-25T08:09:27;26.90;99.90
31769;DHT22;18342;52.132;21.048;2022-08-25T08:11:55;26.90;99.90
31769;DHT22;18342;52.132;21.048;2022-08-25T08:14:22;26.90;99.90
31769;DHT22;18342;52.132;21.048;2022-08-25T08:16:48;26.80;99.90
31769;DHT22;18342;52.132;21.048;2022-08-25T08:19:14;26.80;99.90
31769;DHT22;18342;52.132;21.048;2022-08-25T08:21:41;26.80;99.90
31769;DHT22;18342;52.132;21.048;2022-08-25T08:24:07;26.70;99.90
31769;DHT22;18342;52.132;21.048;2022-08-25T08:26:33;26.70;99.90
31769;DHT22;18342;52.132;21.048;2022-08-25T08:28:59;26.80;99.90
31769;DHT22;18342;52.132;21.048;2022-08-25T08:31:26;26.90;99.90
31769;DHT22;18342;52.132;21.048;2022-08-25T08:33:54;27.10;99.90
31769;DHT22;18342;52.132;21.048;2022-08-25T08:36:21;27.20;99.90
31769;DHT22;18342;52.132;21.048;2022-08-25T08:38:47;27.40;99.90
31769;DHT22;18342;52.132;21.048;2022-08-25T08:46:55;28.00;99.90
31769;DHT22;18342;52.132;21.048;2022-08-25T08:52:00;28.40;99.90
31769;DHT22;18342;52.132;21.048;2022-08-25T08:54:30;28.50;99.90
31769;DHT22;18342;52.132;21.048;2022-08-25T08:57:18;28.60;99.90
31769;DHT22;18342;52.132;21.048;2022-08-25T08:59:49;28.70;99.90
31769;DHT22;18342;52.132;21.048;2022-08-25T09:02:26;28.80;99.90
31769;DHT22;18342;52.132;21.048;2022-08-25T09:05:05;29.00;99.90
31769;DHT22;18342;52.132;21.048;2022-08-25T09:07:39;29.10;99.90
31769;DHT22;18342;52.132;21.048;2022-08-25T09:10:06;29.20;99.90
31769;DHT22;18342;52.132;21.048;2022-08-25T09:12:47;29.30;99.90
31769;DHT22;18342;52.132;21.048;2022-08-25T09:21:17;29.70;99.90
31769;DHT22;18342;52.132;21.048;2022-08-25T09:26:44;30.00;99.90
31769;DHT22;18342;52.132;21.048;2022-08-25T09:29:23;30.10;99.90
31769;DHT22;18342;52.132;21.048;2022-08-25T09:31:49;30.20;99.90
31769;DHT22;18342;52.132;21.048;2022-08-25T09:34:20;30.30;99.90
31769;DHT22;18342;52.132;21.048;2022-08-25T09:36:47;30.50;99.90
31769;DHT22;18342;52.132;21.048;2022-08-25T09:39:15;30.50;99.90
31769;DHT22;18342;52.132;21.048;2022-08-25T09:41:45;30.60;99.80
31769;DHT22;18342;52.132;21.048;2022-08-25T09:44:26;30.70;99.60
31769;DHT22;18342;52.132;21.048;2022-08-25T09:49:58;31.00;95.80
31769;DHT22;18342;52.132;21.048;2022-08-25T09:57:52;31.10;94.60
31769;DHT22;18342;52.132;21.048;2022-08-25T10:05:26;31.50;85.60
31769;DHT22;18342;52.132;21.048;2022-08-25T10:07:57;31.60;89.50
31769;DHT22;18342;52.132;21.048;2022-08-25T10:10:34;31.70;90.20
31769;DHT22;18342;52.132;21.048;2022-08-25T10:13:02;31.80;88.90
31769;DHT22;18342;52.132;21.048;2022-08-25T10:15:37;31.80;90.40
31769;DHT22;18342;52.132;21.048;2022-08-25T10:18:26;31.90;90.50
31769;DHT22;18342;52.132;21.048;2022-08-25T10:21:13;31.90;88.50
31769;DHT22;18342;52.132;21.048;2022-08-25T10:23:49;31.90;88.00
31769;DHT22;18342;52.132;21.048;2022-08-25T10:26:41;32.00;87.70
31769;DHT22;18342;52.132;21.048;2022-08-25T10:31:58;32.20;80.20
31769;DHT22;18342;52.132;21.048;2022-08-25T10:34:49;32.20;79.10
31769;DHT22;18342;52.132;21.048;2022-08-25T10:43:04;32.30;79.70
31769;DHT22;18342;52.132;21.048;2022-08-25T10:45:36;32.30;79.00
31769;DHT22;18342;52.132;21.048;2022-08-25T10:50:36;32.40;77.10
31769;DHT22;18342;52.132;21.048;2022-08-25T10:55:52;32.40;73.00
31769;DHT22;18342;52.132;21.048;2022-08-25T10:59:05;32.50;70.80
31769;DHT22;18342;52.132;21.048;2022-08-25T11:01:17;32.50;69.70
31769;DHT22;18342;52.132;21.048;2022-08-25T11:03:51;32.50;70.20
31769;DHT22;18342;52.132;21.048;2022-08-25T11:09:29;32.40;69.00
31769;DHT22;18342;52.132;21.048;2022-08-25T11:12:08;32.40;68.70
31769;DHT22;18342;52.132;21.048;2022-08-25T11:14:50;32.40;70.30
31769;DHT22;18342;52.132;21.048;2022-08-25T11:17:33;32.40;71.70
31769;DHT22;18342;52.132;21.048;2022-08-25T11:20:06;32.40;72.60
31769;DHT22;18342;52.132;21.048;2022-08-25T11:25:18;32.30;70.40
31769;DHT22;18342;52.132;21.048;2022-08-25T11:27:54;32.30;70.10
31769;DHT22;18342;52.132;21.048;2022-08-25T11:30:22;32.20;70.50
31769;DHT22;18342;52.132;21.048;2022-08-25T11:32:50;32.20;69.90
31769;DHT22;18342;52.132;21.048;2022-08-25T11:35:24;32.20;72.50
31769;DHT22;18342;52.132;21.048;2022-08-25T11:41:04;32.00;66.40
31769;DHT22;18342;52.132;21.048;2022-08-25T11:49:18;31.60;65.80
31769;DHT22;18342;52.132;21.048;2022-08-25T11:51:49;31.50;64.80
31769;DHT22;18342;52.132;21.048;2022-08-25T12:04:53;31.10;67.50
31769;DHT22;18342;52.132;21.048;2022-08-25T12:07:23;31.20;70.00
31769;DHT22;18342;52.132;21.048;2022-08-25T12:17:43;31.10;69.50
31769;DHT22;18342;52.132;21.048;2022-08-25T12:20:09;31.00;70.00
31769;DHT22;18342;52.132;21.048;2022-08-25T12:25:13;30.80;68.20
31769;DHT22;18342;52.132;21.048;2022-08-25T12:28:04;30.80;68.70
31769;DHT22;18342;52.132;21.048;2022-08-25T12:30:44;30.80;71.10
31769;DHT22;18342;52.132;21.048;2022-08-25T12:36:05;30.80;69.50
31769;DHT22;18342;52.132;21.048;2022-08-25T12:41:19;30.70;69.80
31769;DHT22;18342;52.132;21.048;2022-08-25T12:43:51;30.80;68.80
31769;DHT22;18342;52.132;21.048;2022-08-25T12:56:59;30.70;69.80
31769;DHT22;18342;52.132;21.048;2022-08-25T12:59:40;30.70;68.10
31769;DHT22;18342;52.132;21.048;2022-08-25T13:15:42;30.50;69.00
31769;DHT22;18342;52.132;21.048;2022-08-25T13:18:27;30.50;69.10
31769;DHT22;18342;52.132;21.048;2022-08-25T13:23:35;30.50;70.10
31769;DHT22;18342;52.132;21.048;2022-08-25T13:26:02;30.50;68.90
31769;DHT22;18342;52.132;21.048;2022-08-25T13:28:32;30.40;66.90
31769;DHT22;18342;52.132;21.048;2022-08-25T13:33:30;30.40;68.90
31769;DHT22;18342;52.132;21.048;2022-08-25T13:35:58;30.40;69.00
31769;DHT22;18342;52.132;21.048;2022-08-25T13:38:46;30.50;67.30
31769;DHT22;18342;52.132;21.048;2022-08-25T13:41:22;30.40;67.90
31769;DHT22;18342;52.132;21.048;2022-08-25T13:43:49;30.40;67.70
31769;DHT22;18342;52.132;21.048;2022-08-25T13:46:22;30.50;66.80
31769;DHT22;18342;52.132;21.048;2022-08-25T13:48:47;30.40;67.40
31769;DHT22;18342;52.132;21.048;2022-08-25T13:51:25;30.40;66.80
31769;DHT22;18342;52.132;21.048;2022-08-25T13:54:04;30.50;68.40
31769;DHT22;18342;52.132;21.048;2022-08-25T13:56:34;30.50;66.70
31769;DHT22;18342;52.132;21.048;2022-08-25T13:59:03;30.50;68.40
31769;DHT22;18342;52.132;21.048;2022-08-25T14:01:36;30.40;63.40
31769;DHT22;18342;52.132;21.048;2022-08-25T14:04:27;30.40;63.70
31769;DHT22;18342;52.132;21.048;2022-08-25T14:07:22;30.40;64.00
31769;DHT22;18342;52.132;21.048;2022-08-25T14:10:00;30.40;64.30
31769;DHT22;18342;52.132;21.048;2022-08-25T14:12:46;30.40;64.80
31769;DHT22;18342;52.132;21.048;2022-08-25T14:17:44;30.40;66.30
31769;DHT22;18342;52.132;21.048;2022-08-25T14:20:22;30.40;65.50
31769;DHT22;18342;52.132;21.048;2022-08-25T14:22:55;30.40;65.50
31769;DHT22;18342;52.132;21.048;2022-08-25T14:25:21;30.40;66.20
31769;DHT22;18342;52.132;21.048;2022-08-25T14:27:58;30.30;65.10
31769;DHT22;18342;52.132;21.048;2022-08-25T14:30:24;30.30;66.80
31769;DHT22;18342;52.132;21.048;2022-08-25T14:32:50;30.30;66.80
31769;DHT22;18342;52.132;21.048;2022-08-25T14:35:16;30.30;67.20
31769;DHT22;18342;52.132;21.048;2022-08-25T14:37:43;30.20;66.50
31769;DHT22;18342;52.132;21.048;2022-08-25T14:40:10;30.20;65.00
31769;DHT22;18342;52.132;21.048;2022-08-25T14:42:38;30.20;64.70
31769;DHT22;18342;52.132;21.048;2022-08-25T14:45:05;30.30;63.50
31769;DHT22;18342;52.132;21.048;2022-08-25T14:47:31;30.30;62.50
31769;DHT22;18342;52.132;21.048;2022-08-25T14:49:57;30.30;62.70
31769;DHT22;18342;52.132;21.048;2022-08-25T14:52:28;30.30;62.60
31769;DHT22;18342;52.132;21.048;2022-08-25T14:54:54;30.20;62.90
31769;DHT22;18342;52.132;21.048;2022-08-25T14:57:22;30.20;63.10
31769;DHT22;18342;52.132;21.048;2022-08-25T14:59:48;30.20;62.40
31769;DHT22;18342;52.132;21.048;2022-08-25T15:02:15;30.20;62.70
31769;DHT22;18342;52.132;21.048;2022-08-25T15:04:52;30.20;62.20
31769;DHT22;18342;52.132;21.048;2022-08-25T15:07:18;30.20;64.20
31769;DHT22;18342;52.132;21.048;2022-08-25T15:10:03;30.20;62.10
31769;DHT22;18342;52.132;21.048;2022-08-25T15:12:29;30.10;61.80
31769;DHT22;18342;52.132;21.048;2022-08-25T15:14:55;30.10;62.90
31769;DHT22;18342;52.132;21.048;2022-08-25T15:17:22;30.10;62.30
31769;DHT22;18342;52.132;21.048;2022-08-25T15:19:48;30.10;62.50
31769;DHT22;18342;52.132;21.048;2022-08-25T15:22:13;30.10;63.50
31769;DHT22;18342;52.132;21.048;2022-08-25T15:24:39;30.00;63.20
31769;DHT22;18342;52.132;21.048;2022-08-25T15:27:06;30.00;62.90
31769;DHT22;18342;52.132;21.048;2022-08-25T15:29:34;30.00;62.40
31769;DHT22;18342;52.132;21.048;2022-08-25T15:32:01;30.00;62.60
31769;DHT22;18342;52.132;21.048;2022-08-25T15:34:28;30.00;63.00
31769;DHT22;18342;52.132;21.048;2022-08-25T15:36:56;30.00;63.20
31769;DHT22;18342;52.132;21.048;2022-08-25T15:39:22;29.90;62.40
31769;DHT22;18342;52.132;21.048;2022-08-25T15:41:49;29.90;62.70
31769;DHT22;18342;52.132;21.048;2022-08-25T15:44:17;29.90;62.20
31769;DHT22;18342;52.132;21.048;2022-08-25T15:46:43;29.80;62.50
31769;DHT22;18342;52.132;21.048;2022-08-25T15:49:09;29.80;62.10
31769;DHT22;18342;52.132;21.048;2022-08-25T15:51:35;29.80;62.40
31769;DHT22;18342;52.132;21.048;2022-08-25T15:54:01;29.70;63.30
31769;DHT22;18342;52.132;21.048;2022-08-25T15:56:26;29.70;62.70
31769;DHT22;18342;52.132;21.048;2022-08-25T15:58:52;29.70;62.70
31769;DHT22;18342;52.132;21.048;2022-08-25T16:01:25;29.70;61.80
31769;DHT22;18342;52.132;21.048;2022-08-25T16:03:52;29.70;62.10
31769;DHT22;18342;52.132;21.048;2022-08-25T16:06:18;29.60;62.70
31769;DHT22;18342;52.132;21.048;2022-08-25T16:08:44;29.60;62.40
31769;DHT22;18342;52.132;21.048;2022-08-25T16:11:24;29.60;63.00
31769;DHT22;18342;52.132;21.048;2022-08-25T16:13:51;29.60;62.20
31769;DHT22;18342;52.132;21.048;2022-08-25T16:16:18;29.50;62.70
31769;DHT22;18342;52.132;21.048;2022-08-25T16:18:45;29.50;62.20
31769;DHT22;18342;52.132;21.048;2022-08-25T16:21:14;29.50;61.70
31769;DHT22;18342;52.132;21.048;2022-08-25T16:23:40;29.50;60.90
31769;DHT22;18342;52.132;21.048;2022-08-25T16:26:07;29.50;61.40
31769;DHT22;18342;52.132;21.048;2022-08-25T16:28:34;29.40;61.20
31769;DHT22;18342;52.132;21.048;2022-08-25T16:31:00;29.40;60.60
31769;DHT22;18342;52.132;21.048;2022-08-25T16:33:26;29.40;61.30
31769;DHT22;18342;52.132;21.048;2022-08-25T16:35:52;29.30;61.60
31769;DHT22;18342;52.132;21.048;2022-08-25T16:38:17;29.30;62.10
31769;DHT22;18342;52.132;21.048;2022-08-25T16:40:44;29.20;62.80
31769;DHT22;18342;52.132;21.048;2022-08-25T16:43:10;29.20;63.00
31769;DHT22;18342;52.132;21.048;2022-08-25T16:45:36;29.20;63.20
31769;DHT22;18342;52.132;21.048;2022-08-25T16:48:04;29.10;63.70
31769;DHT22;18342;52.132;21.048;2022-08-25T16:50:30;29.10;64.80
31769;DHT22;18342;52.132;21.048;2022-08-25T16:52:58;29.10;64.70
31769;DHT22;18342;52.132;21.048;2022-08-25T16:55:42;29.00;65.40
31769;DHT22;18342;52.132;21.048;2022-08-25T16:58:09;29.00;65.80
31769;DHT22;18342;52.132;21.048;2022-08-25T17:00:37;29.00;66.10
31769;DHT22;18342;52.132;21.048;2022-08-25T17:03:03;28.90;66.20
31769;DHT22;18342;52.132;21.048;2022-08-25T17:05:31;28.90;66.60
31769;DHT22;18342;52.132;21.048;2022-08-25T17:08:01;28.80;66.30
31769;DHT22;18342;52.132;21.048;2022-08-25T17:10:46;28.80;67.00
31769;DHT22;18342;52.132;21.048;2022-08-25T17:13:12;28.80;67.10
31769;DHT22;18342;52.132;21.048;2022-08-25T17:15:42;28.70;67.40
31769;DHT22;18342;52.132;21.048;2022-08-25T17:18:09;28.70;68.00
31769;DHT22;18342;52.132;21.048;2022-08-25T17:20:36;28.60;68.90
31769;DHT22;18342;52.132;21.048;2022-08-25T17:23:03;28.60;69.50
31769;DHT22;18342;52.132;21.048;2022-08-25T17:25:33;28.50;73.60
31769;DHT22;18342;52.132;21.048;2022-08-25T17:27:59;28.50;73.70
31769;DHT22;18342;52.132;21.048;2022-08-25T17:30:24;28.40;75.60